createdAt,value
2023-09-16T00:01:52.240Z,9.57
2023-09-16T00:05:54.967Z,9.23
2023-09-16T00:09:58.129Z,10.63
2023-09-16T00:14:00.922Z,9.20
2023-09-16T00:18:05.601Z,10.20
2023-09-16T00:22:11.362Z,8.93
2023-09-16T00:26:14.838Z,8.77
2023-09-16T00:30:21.817Z,9.00
2023-09-16T00:34:25.946Z,9.93
2023-09-16T00:38:28.653Z,8.77
2023-09-16T00:42:31.645Z,11.07
2023-09-16T00:46:34.417Z,9.67
2023-09-16T00:50:38.652Z,9.40
2023-09-16T00:54:41.550Z,8.40
2023-09-16T00:58:44.466Z,8.97
2023-09-16T01:02:48.253Z,8.70
2023-09-16T01:06:52.535Z,8.63
2023-09-16T01:10:55.211Z,9.13
2023-09-16T01:14:58.705Z,10.30
2023-09-16T01:19:13.334Z,11.27
2023-09-16T01:23:20.440Z,10.23
2023-09-16T01:27:24.465Z,9.67
2023-09-16T01:31:27.501Z,8.97
2023-09-16T01:35:36.740Z,8.90
2023-09-16T01:39:41.743Z,9.93
2023-09-16T01:43:46.152Z,8.30
2023-09-16T01:47:51.239Z,8.27
2023-09-16T01:51:54.263Z,8.83
2023-09-16T01:55:57.111Z,9.37
2023-09-16T02:00:01.543Z,9.37
2023-09-16T02:04:05.554Z,8.33
2023-09-16T02:08:09.158Z,8.07
2023-09-16T02:12:11.923Z,9.53
2023-09-16T02:16:17.234Z,8.27
2023-09-16T02:20:20.436Z,7.90
2023-09-16T02:24:23.377Z,10.33
2023-09-16T02:28:26.362Z,11.37
2023-09-16T02:32:31.431Z,10.93
2023-09-16T02:36:34.242Z,10.20
2023-09-16T02:40:40.657Z,10.50
2023-09-16T02:44:43.944Z,10.70
2023-09-16T02:48:48.313Z,10.37
2023-09-16T02:52:51.576Z,10.07
2023-09-16T02:56:54.325Z,11.37
2023-09-16T03:00:57.210Z,11.10
2023-09-16T03:05:01.816Z,11.53
2023-09-16T03:09:06.445Z,10.70
2023-09-16T03:13:09.637Z,10.10
2023-09-16T03:17:12.380Z,11.67
2023-09-16T03:21:17.772Z,10.60
2023-09-16T03:25:20.850Z,10.23
2023-09-16T03:29:23.638Z,9.77
2023-09-16T03:33:26.378Z,9.00
2023-09-16T03:37:30.486Z,9.87
2023-09-16T03:41:38.749Z,9.73
2023-09-16T03:45:41.881Z,10.63
2023-09-16T03:49:44.751Z,9.77
2023-09-16T03:53:49.152Z,10.57
2023-09-16T03:57:52.042Z,10.87
2023-09-16T04:01:54.851Z,11.87
2023-09-16T04:05:59.528Z,11.63
2023-09-16T04:10:04.682Z,12.13
2023-09-16T04:14:07.458Z,11.10
2023-09-16T04:18:10.175Z,13.20
2023-09-16T04:22:12.961Z,12.80
2023-09-16T04:26:17.220Z,12.90
2023-09-16T04:30:22.930Z,11.83
2023-09-16T04:34:25.857Z,10.47
2023-09-16T04:38:29.718Z,12.57
2023-09-16T04:42:35.628Z,12.10
2023-09-16T04:46:38.382Z,11.00
2023-09-16T04:50:46.659Z,11.63
2023-09-16T04:54:49.923Z,11.60
2023-09-16T04:58:54.307Z,10.60
2023-09-16T05:02:58.988Z,13.13
2023-09-16T05:07:01.717Z,11.33
2023-09-16T05:11:05.048Z,11.23
2023-09-16T05:15:19.455Z,10.97
2023-09-16T05:19:22.594Z,11.73
2023-09-16T05:23:26.283Z,9.90
2023-09-16T05:27:29.930Z,10.63
2023-09-16T05:31:33.998Z,10.40
2023-09-16T05:35:36.933Z,10.30
2023-09-16T05:39:39.990Z,14.30
2023-09-16T05:43:43.313Z,12.23
2023-09-16T05:47:49.576Z,13.37
2023-09-16T05:51:53.952Z,11.53
2023-09-16T05:55:56.978Z,13.40
2023-09-16T05:59:59.902Z,11.40
2023-09-16T06:04:04.783Z,12.70
2023-09-16T06:08:08.063Z,13.27
2023-09-16T06:12:11.474Z,14.20
2023-09-16T06:16:14.530Z,12.57
2023-09-16T06:20:18.982Z,12.57
2023-09-16T06:24:22.660Z,12.77
2023-09-16T06:28:26.340Z,13.17
2023-09-16T06:32:29.168Z,12.80
2023-09-16T06:36:34.196Z,13.87
2023-09-16T06:40:39.268Z,11.83
2023-09-16T06:44:43.022Z,11.57
2023-09-16T06:48:46.455Z,12.20
2023-09-16T06:52:50.766Z,11.50
2023-09-16T06:56:53.426Z,13.93
2023-09-16T07:00:56.281Z,11.63
2023-09-16T07:04:59.058Z,13.47
2023-09-16T07:09:03.126Z,12.77
2023-09-16T07:13:05.956Z,12.17
2023-09-16T07:17:08.987Z,13.20
2023-09-16T07:21:11.773Z,12.00
2023-09-16T07:25:15.923Z,11.40
2023-09-16T07:29:19.601Z,11.80
2023-09-16T07:33:23.580Z,10.87
2023-09-16T07:37:26.336Z,11.00
2023-09-16T07:41:30.413Z,11.17
2023-09-16T07:45:33.148Z,19.57
2023-09-16T07:49:36.452Z,14.87
2023-09-16T07:53:39.203Z,11.60
2023-09-16T07:57:43.378Z,10.80
2023-09-16T08:01:46.200Z,9.37
2023-09-16T08:05:50.023Z,9.30
2023-09-16T08:09:52.888Z,8.60
2023-09-16T08:13:57.128Z,10.13
2023-09-16T08:17:59.881Z,8.83
2023-09-16T08:22:02.862Z,7.90
2023-09-16T08:26:05.749Z,7.77
2023-09-16T08:30:10.823Z,8.67
2023-09-16T08:34:13.590Z,7.83
2023-09-16T08:38:16.340Z,7.43
2023-09-16T08:42:26.298Z,7.70
2023-09-16T08:46:32.234Z,8.43
2023-09-16T08:50:35.244Z,8.10
2023-09-16T08:54:40.231Z,8.50
2023-09-16T08:58:45.105Z,8.00
2023-09-16T09:02:50.941Z,7.77
2023-09-16T09:06:55.447Z,8.07
2023-09-16T09:10:59.146Z,7.67
2023-09-16T09:15:05.467Z,9.03
2023-09-16T09:19:11.303Z,7.17
2023-09-16T09:23:15.229Z,14.07
2023-09-16T09:27:18.007Z,9.03
2023-09-16T09:31:21.695Z,8.40
2023-09-16T09:35:26.545Z,7.10
2023-09-16T09:39:29.358Z,12.63
2023-09-16T09:43:32.679Z,7.63
2023-09-16T09:47:35.723Z,6.53
2023-09-16T09:51:40.185Z,6.43
2023-09-16T09:55:43.072Z,8.03
2023-09-16T09:59:47.038Z,7.10
2023-09-16T10:03:50.140Z,7.30
2023-09-16T10:07:55.387Z,13.50
2023-09-16T10:11:58.531Z,7.30
2023-09-16T10:16:02.505Z,7.20
2023-09-16T10:20:06.143Z,7.03
2023-09-16T10:24:10.855Z,6.43
2023-09-16T10:28:13.885Z,6.20
2023-09-16T10:32:20.476Z,7.20
2023-09-16T10:36:24.063Z,7.60
2023-09-16T10:40:28.594Z,6.90
2023-09-16T10:44:31.881Z,7.00
2023-09-16T10:48:34.736Z,6.30
2023-09-16T10:52:42.614Z,5.87
2023-09-16T10:56:47.031Z,5.63
2023-09-16T11:00:54.882Z,4.30
2023-09-16T11:04:58.166Z,6.40
2023-09-16T11:09:01.794Z,5.83
2023-09-16T11:13:07.213Z,5.25
2023-09-16T11:17:14.877Z,5.47
2023-09-16T11:21:18.964Z,5.68
2023-09-16T11:25:21.878Z,4.77
2023-09-16T11:29:29.347Z,4.63
2023-09-16T11:33:34.606Z,5.10
2023-09-16T11:37:37.472Z,5.15
2023-09-16T11:41:40.221Z,4.50
2023-09-16T11:45:44.563Z,5.47
2023-09-16T11:49:49.197Z,5.97
2023-09-16T11:53:52.987Z,5.75
2023-09-16T11:57:56.023Z,5.32
2023-09-16T12:02:01.094Z,4.82
2023-09-16T12:06:04.829Z,5.43
2023-09-16T12:10:10.169Z,4.88
2023-09-16T12:14:13.545Z,5.15
2023-09-16T12:18:17.720Z,5.25
2023-09-16T12:22:20.931Z,5.45
2023-09-16T12:26:24.112Z,5.30
2023-09-16T12:30:26.903Z,5.18
2023-09-16T12:34:31.277Z,6.18
2023-09-16T12:38:35.575Z,5.82
2023-09-16T12:42:38.773Z,4.78
2023-09-16T12:46:41.891Z,5.13
2023-09-16T12:50:47.560Z,4.85
2023-09-16T12:54:50.535Z,4.15
2023-09-16T12:58:55.181Z,5.80
2023-09-16T13:03:01.071Z,5.93
2023-09-16T13:07:06.021Z,5.10
2023-09-16T13:11:09.205Z,11.05
2023-09-16T13:15:16.064Z,8.20
2023-09-16T13:19:22.356Z,6.63
2023-09-16T13:23:27.068Z,5.38
2023-09-16T13:27:29.833Z,5.93
2023-09-16T13:31:32.867Z,5.20
2023-09-16T13:35:37.257Z,6.18
2023-09-16T13:39:45.794Z,5.80
2023-09-16T13:43:48.757Z,5.65
2023-09-16T13:48:11.717Z,5.45
2023-09-16T13:52:14.548Z,5.20
2023-09-16T13:56:20.505Z,5.30
2023-09-16T14:00:23.388Z,5.53
2023-09-16T14:04:26.337Z,5.88
2023-09-16T14:08:29.181Z,5.82
2023-09-16T14:12:33.551Z,6.45
2023-09-16T14:16:39.195Z,5.25
2023-09-16T14:20:43.344Z,7.25
2023-09-16T14:24:46.087Z,6.35
2023-09-16T14:28:50.441Z,6.43
2023-09-16T14:32:53.449Z,6.15
2023-09-16T14:36:56.224Z,6.20
2023-09-16T14:41:05.621Z,8.30
2023-09-16T14:45:10.003Z,6.30
2023-09-16T14:49:12.821Z,6.00
2023-09-16T14:53:15.572Z,9.98
2023-09-16T14:57:18.684Z,5.90
2023-09-16T15:01:22.840Z,6.35
2023-09-16T15:05:25.851Z,5.75
2023-09-16T15:09:29.127Z,6.25
2023-09-16T15:13:31.942Z,5.93
2023-09-16T15:17:36.000Z,6.97
2023-09-16T15:21:38.781Z,8.85
2023-09-16T15:25:41.580Z,6.97
2023-09-16T15:29:45.244Z,17.00
2023-09-16T15:33:49.894Z,7.73
2023-09-16T15:37:53.373Z,13.60
2023-09-16T15:41:56.149Z,7.23
2023-09-16T15:46:01.119Z,6.97
2023-09-16T15:50:05.526Z,6.60
2023-09-16T15:54:08.387Z,6.43
2023-09-16T15:58:13.565Z,7.30
2023-09-16T16:02:16.574Z,7.77
2023-09-16T16:06:22.771Z,6.93
2023-09-16T16:10:26.400Z,8.07
2023-09-16T16:14:29.238Z,7.27
2023-09-16T16:18:32.215Z,8.67
2023-09-16T16:22:36.497Z,11.20
2023-09-16T16:26:39.454Z,8.47
2023-09-16T16:30:42.298Z,7.20
2023-09-16T16:34:45.128Z,6.10
2023-09-16T16:38:49.278Z,6.70
2023-09-16T16:42:52.037Z,7.27
2023-09-16T16:46:59.546Z,9.03
2023-09-16T16:51:05.714Z,7.77
2023-09-16T16:55:10.607Z,7.33
2023-09-16T16:59:13.408Z,6.43
2023-09-16T17:03:16.220Z,6.73
2023-09-16T17:07:19.202Z,6.80
2023-09-16T17:11:23.339Z,8.33
2023-09-16T17:15:26.214Z,10.67
2023-09-16T17:19:29.895Z,8.47
2023-09-16T17:23:32.649Z,7.77
2023-09-16T17:27:39.726Z,6.87
2023-09-16T17:31:43.657Z,6.07
2023-09-16T17:35:46.698Z,5.57
2023-09-16T17:39:49.503Z,6.10
2023-09-16T17:43:54.334Z,6.87
2023-09-16T17:47:57.069Z,6.17
2023-09-16T17:52:00.070Z,6.67
2023-09-16T17:56:03.896Z,8.47
2023-09-16T18:00:10.757Z,7.20
2023-09-16T18:04:21.678Z,7.97
2023-09-16T18:08:25.223Z,15.63
2023-09-16T18:12:29.271Z,11.67
2023-09-16T18:16:33.581Z,12.83
2023-09-16T18:20:38.393Z,14.60
2023-09-16T18:24:41.325Z,10.27
2023-09-16T18:28:44.085Z,9.03
2023-09-16T18:32:48.290Z,10.27
2023-09-16T18:36:51.091Z,9.53
2023-09-16T18:40:54.430Z,9.80
2023-09-16T18:44:57.588Z,8.83
2023-09-16T18:49:02.010Z,7.90
2023-09-16T18:53:05.306Z,12.63
2023-09-16T18:57:09.234Z,14.87
2023-09-16T19:01:12.169Z,10.73
2023-09-16T19:05:16.380Z,10.10
2023-09-16T19:09:20.235Z,9.37
2023-09-16T19:13:23.482Z,10.23
2023-09-16T19:17:26.360Z,9.50
2023-09-16T19:21:30.531Z,9.70
2023-09-16T19:25:34.262Z,8.23
2023-09-16T19:29:37.268Z,10.97
2023-09-16T19:33:40.890Z,10.10
2023-09-16T19:37:45.023Z,10.97
2023-09-16T19:41:47.818Z,11.03
2023-09-16T19:45:50.572Z,11.03
2023-09-16T19:49:53.846Z,11.70
2023-09-16T19:53:58.424Z,9.83
2023-09-16T19:58:01.184Z,9.53
2023-09-16T20:02:04.773Z,10.17
2023-09-16T20:06:08.500Z,9.00
2023-09-16T20:10:12.966Z,8.90
2023-09-16T20:14:16.147Z,9.63
2023-09-16T20:18:19.060Z,8.27
2023-09-16T20:22:22.132Z,9.70
2023-09-16T20:26:26.732Z,9.33
2023-09-16T20:30:29.731Z,10.67
2023-09-16T20:34:33.156Z,10.80
2023-09-16T20:38:35.941Z,9.13
2023-09-16T20:42:40.081Z,8.63
2023-09-16T20:46:43.232Z,8.70
2023-09-16T20:50:46.123Z,7.57
2023-09-16T20:54:49.118Z,8.27
2023-09-16T20:58:53.557Z,8.73
2023-09-16T21:02:56.406Z,8.03
2023-09-16T21:06:59.348Z,7.80
2023-09-16T21:11:02.180Z,7.17
2023-09-16T21:15:07.644Z,7.03
2023-09-16T21:19:10.488Z,6.60
2023-09-16T21:23:13.950Z,6.93
2023-09-16T21:27:16.661Z,8.63
2023-09-16T21:31:20.951Z,9.00
2023-09-16T21:35:23.866Z,7.10
2023-09-16T21:39:26.690Z,8.33
2023-09-16T21:43:29.549Z,7.47
2023-09-16T21:47:33.858Z,6.27
2023-09-16T21:51:36.683Z,6.67
2023-09-16T21:55:40.397Z,7.67
2023-09-16T21:59:44.272Z,7.93
2023-09-16T22:03:48.549Z,7.23
2023-09-16T22:07:51.634Z,7.37
2023-09-16T22:11:54.426Z,7.77
2023-09-16T22:15:58.215Z,7.27
2023-09-16T22:20:04.539Z,8.10
2023-09-16T22:24:07.860Z,7.93
2023-09-16T22:28:10.728Z,9.00
2023-09-16T22:32:13.535Z,8.90
2023-09-16T22:36:17.862Z,9.80
2023-09-16T22:40:20.875Z,11.13
2023-09-16T22:44:23.629Z,9.90
2023-09-16T22:48:26.420Z,11.30
2023-09-16T22:52:32.634Z,10.33
2023-09-16T22:56:36.032Z,9.70
2023-09-16T23:00:38.982Z,9.10
2023-09-16T23:04:41.809Z,10.17
2023-09-16T23:08:45.955Z,10.10
2023-09-16T23:12:48.855Z,9.53
2023-09-16T23:16:51.713Z,10.87
2023-09-16T23:20:58.087Z,11.50
2023-09-16T23:25:02.200Z,9.80
2023-09-16T23:29:04.965Z,9.03
2023-09-16T23:33:07.776Z,11.63
2023-09-16T23:37:10.658Z,11.93
2023-09-16T23:41:15.831Z,11.43
2023-09-16T23:45:18.661Z,11.03
2023-09-16T23:49:21.422Z,11.23
2023-09-16T23:53:24.215Z,9.63
2023-09-16T23:57:28.315Z,12.33
